Latest Weather Observations for Brisbane Airport

IDQ60801

Issued at 5:42 pm EST Sunday 15 September 2019 (issued every 10 minutes, with the page automatically refreshed every 10 minutes)

About weather observations | Map of weather stations | Latest weather observations for QLD | Other Formats
Station Details ID: 040842 Name: BRISBANE AERO Lat: -27.39 Lon: 153.13 Height: 4.51 m
Data from the previous 72 hours. | See also: Recent months at Brisbane Airport
Date/Time
EST
Temp
°C
App
Temp
°C
Dew
Point
°C
Rel
Hum
%
Delta-T
°C
Wind Press
QNH
hPa
Press
MSL
hPa
Rain since
9am
mm
Dir  Spd
km/h
Gust
km/h
Spd
kts
Gust
kts
15/05:30pm 18.6 15.8 13.3 71 3.0 NNE 20 26 11 14 1023.3 1023.2 0.0
15/05:00pm 19.7 15.6 11.5 59 4.5 NNE 24 28 13 15 1023.0 1022.9 0.0
15/04:30pm 20.4 16.4 10.6 53 5.3 NNE 22 28 12 15 1022.8 1022.7 0.0
15/04:00pm 21.3 16.8 10.0 48 6.1 NNE 24 28 13 15 1022.5 1022.4 0.0
15/03:30pm 21.5 18.6 12.2 55 5.2 NE 19 28 10 15 1022.4 1022.3 0.0
15/03:00pm 21.9 18.4 10.8 49 6.1 ENE 20 24 11 13 1022.5 1022.4 0.0
15/02:30pm 22.1 18.6 10.1 46 6.5 NE 19 24 10 13 1022.8 1022.7 0.0
15/02:00pm 23.0 20.1 10.9 46 6.7 NE 17 22 9 12 1023.0 1022.9 0.0
15/01:30pm 23.4 20.0 9.0 40 7.7 NE 17 22 9 12 1023.3 1023.2 0.0
15/01:00pm 21.7 19.3 12.5 56 5.2 ENE 17 22 9 12 1023.8 1023.7 0.0
15/12:30pm 21.5 18.9 12.0 54 5.3 NNE 17 22 9 12 1024.2 1024.1 0.0
15/12:00pm 22.2 20.1 12.5 54 5.5 NE 15 20 8 11 1024.5 1024.4 0.0
15/11:30am 21.0 18.7 11.6 55 5.2 NNE 15 22 8 12 1024.9 1024.8 0.0
15/11:00am 21.3 19.1 12.2 56 5.1 ENE 15 20 8 11 1025.0 1024.9 0.0
15/10:30am 21.5 19.8 12.4 56 5.1 NE 13 20 7 11 1025.2 1025.1 0.0
15/10:00am 20.3 18.5 12.0 59 4.6 ENE 13 19 7 10 1025.7 1025.6 0.0
15/09:30am 20.5 19.0 12.0 58 4.7 ESE 11 19 6 10 1025.9 1025.8 0.0
15/09:00am 20.1 19.0 11.8 59 4.6 SE 9 15 5 8 1025.9 1025.8 0.0
15/08:30am 19.2 18.2 12.4 64 3.8 S 9 13 5 7 1025.8 1025.7 0.0
15/08:00am 17.7 16.2 11.8 68 3.2 SW 11 15 6 8 1025.7 1025.6 0.0
15/07:30am 16.7 15.0 12.3 75 2.4 SSW 13 15 7 8 1025.5 1025.4 0.0
15/07:00am 15.4 14.5 12.5 83 1.6 SSW 9 11 5 6 1025.0 1024.9 0.0
15/06:30am 13.5 12.4 12.0 91 0.8 SW 9 11 5 6 1024.5 1024.4 0.0
15/06:00am 12.7 11.6 11.9 95 0.4 SSW 9 11 5 6 1024.1 1024.0 0.0
15/05:30am 13.1 12.4 12.0 93 0.6 SSW 7 9 4 5 1023.8 1023.7 0.0
15/05:00am 13.5 12.5 12.2 92 0.7 SSW 9 11 5 6 1023.5 1023.4 0.0
15/04:30am 13.9 13.1 13.0 94 0.5 SSW 9 11 5 6 1023.3 1023.2 0.0
15/04:00am 14.4 13.6 12.8 90 0.9 SW 9 9 5 5 1023.3 1023.2 0.0
15/03:30am 14.1 13.6 12.6 91 0.8 WSW 7 7 4 4 1023.1 1023.0 0.0
15/03:00am 13.3 12.6 12.0 92 0.7 SW 7 11 4 6 1023.0 1022.9 0.0
15/02:30am 13.3 12.2 12.0 92 0.7 SW 9 11 5 6 1023.0 1022.9 0.0
15/02:00am 13.9 12.8 12.0 88 1.0 SSW 9 11 5 6 1023.1 1023.0 0.0
15/01:30am 14.5 13.5 12.3 87 1.2 SSW 9 11 5 6 1023.4 1023.3 0.0
15/01:00am 16.0 15.3 13.1 83 1.6 S 9 11 5 6 1023.6 1023.5 0.0
15/12:30am 17.0 16.4 13.4 79 2.0 SSE 9 13 5 7 1023.6 1023.5 0.0
15/12:00am 17.6 16.2 13.3 76 2.4 SE 13 22 7 12 1023.6 1023.5 0.0
 
Date/Time
EST
Temp
°C
App
Temp
°C
Dew
Point
°C
Rel
Hum
%
Delta-T
°C
Wind Press
QNH
hPa
Press
MSL
hPa
Rain since
9am
mm
Dir  Spd
km/h
Gust
km/h
Spd
kts
Gust
kts
14/11:30pm 18.0 16.5 13.2 73 2.7 SE 13 19 7 10 1023.8 1023.7 0.0
14/11:00pm 18.0 16.3 12.6 70 3.0 SE 13 20 7 11 1023.8 1023.7 0.0
14/10:30pm 17.9 16.0 11.9 68 3.3 SE 13 19 7 10 1023.8 1023.7 0.0
14/10:00pm 18.2 16.2 11.6 65 3.6 SSE 13 24 7 13 1023.7 1023.6 0.0
14/09:30pm 18.4 16.8 11.4 63 3.8 SSE 11 19 6 10 1023.7 1023.6 0.0
14/09:00pm 18.9 16.9 11.6 62 4.0 SE 13 24 7 13 1023.4 1023.3 0.0
14/08:30pm 19.3 16.9 10.1 55 4.9 SSE 13 22 7 12 1022.9 1022.8 0.0
14/08:00pm 19.4 16.5 9.8 53 5.1 SE 15 22 8 12 1022.9 1022.8 0.0
14/07:30pm 19.5 16.7 11.5 60 4.4 SSE 17 30 9 16 1022.4 1022.3 0.0
14/07:00pm 20.2 19.3 13.7 66 3.7 SE 11 19 6 10 1021.6 1021.5 0.0
14/06:30pm 19.1 19.2 17.5 90 1.0 NE 13 17 7 9 1020.5 1020.4 0.0
14/06:00pm 18.8 18.1 17.3 91 0.9 NNE 17 24 9 13 1019.1 1019.0 0.0
14/05:30pm 19.5 18.2 17.2 86 1.4 NNE 20 28 11 15 1018.6 1018.5 0.0
14/05:00pm 20.5 18.4 16.3 77 2.5 NNE 22 32 12 17 1018.3 1018.2 0.0
14/04:30pm 21.3 18.1 15.4 69 3.5 NNE 26 33 14 18 1018.0 1017.9 0.0
14/04:00pm 22.0 18.9 15.6 67 3.8 NNE 26 32 14 17 1018.0 1017.9 0.0
14/03:30pm 23.2 19.6 14.2 57 5.3 NNE 26 33 14 18 1017.7 1017.7 0.0
14/03:00pm 23.2 19.9 14.9 59 4.9 NNE 26 32 14 17 1017.8 1017.8 0.0
14/02:30pm 23.4 19.9 14.6 57 5.2 NE 26 28 14 15 1018.2 1018.1 0.0
14/02:00pm 23.6 21.1 14.2 55 5.5 NE 20 26 11 14 1018.5 1018.4 0.0
14/01:30pm 24.0 22.2 14.5 55 5.6 NE 17 28 9 15 1018.9 1018.8 0.0
14/01:00pm 23.5 21.3 14.3 56 5.4 NE 19 26 10 14 1019.3 1019.2 0.0
14/12:30pm 24.2 21.9 12.9 49 6.5 NE 17 20 9 11 1019.8 1019.7 0.0
14/12:00pm 24.2 22.1 13.5 51 6.2 NNE 17 22 9 12 1020.5 1020.4 0.0
14/11:30am 23.8 21.3 13.5 52 6.0 NNE 19 22 10 12 1021.0 1020.9 0.0
14/11:00am 23.1 20.7 12.8 52 5.9 NE 17 20 9 11 1021.5 1021.4 0.0
14/10:30am 23.9 23.0 13.8 53 5.9 NNE 11 17 6 9 1022.0 1021.9 0.0
14/10:00am 23.0 21.7 11.3 47 6.5 W 9 13 5 7 1022.5 1022.4 0.0
14/09:30am 21.6 20.9 13.2 59 4.8 W 9 17 5 9 1022.8 1022.7 0.0
14/09:00am 20.4 20.3 14.0 66 3.7 WSW 7 13 4 7 1023.1 1023.0 0.0
14/08:30am 19.4 19.0 14.0 71 3.1 WSW 9 13 5 7 1023.0 1022.9 0.0
14/08:00am 17.4 16.3 12.1 71 2.9 WSW 9 13 5 7 1022.9 1022.8 0.0
14/07:30am 15.3 14.0 11.2 76 2.2 SSW 9 13 5 7 1022.9 1022.8 0.0
14/07:00am 13.7 11.9 10.8 83 1.5 SSW 11 11 6 6 1022.9 1022.8 0.0
14/06:30am 12.3 9.9 10.1 86 1.1 SSW 13 15 7 8 1022.6 1022.5 0.0
14/06:00am 12.1 10.1 10.1 87 1.0 SSW 11 13 6 7 1022.4 1022.3 0.0
14/05:30am 12.8 10.6 10.7 87 1.1 SSW 13 17 7 9 1022.3 1022.2 0.0
14/05:00am 12.8 11.2 11.7 93 0.6 SSW 11 13 6 7 1022.2 1022.1 0.0
14/04:30am 12.5 10.9 11.7 95 0.4 SW 11 13 6 7 1022.0 1021.9 0.0
14/04:00am 13.1 12.6 12.2 94 0.5 WSW 6 9 3 5 1021.8 1021.7 0.0
14/03:30am 12.5 11.8 11.9 96 0.3 WSW 7 9 4 5 1021.7 1021.6 0.0
14/03:00am 13.0 12.1 12.6 97 0.2 SW 9 11 5 6 1021.6 1021.5 0.0
14/02:30am 13.5 13.0 12.8 95 0.4 SW 7 9 4 5 1021.8 1021.7 0.0
14/02:00am 14.0 13.6 13.1 94 0.5 SW 7 9 4 5 1022.2 1022.1 0.0
14/01:30am 14.4 14.0 13.1 92 0.7 WSW 7 11 4 6 1022.4 1022.3 0.0
14/01:00am 14.3 13.6 13.2 93 0.6 SSW 9 11 5 6 1022.8 1022.7 0.0
14/12:30am 14.6 14.7 13.9 96 0.4 SSW 6 7 3 4 1022.9 1022.8 0.0
14/12:00am 15.0 14.5 13.9 93 0.6 SSW 9 11 5 6 1023.1 1023.0 0.0
 
Date/Time
EST
Temp
°C
App
Temp
°C
Dew
Point
°C
Rel
Hum
%
Delta-T
°C
Wind Press
QNH
hPa
Press
MSL
hPa
Rain since
9am
mm
Dir  Spd
km/h
Gust
km/h
Spd
kts
Gust
kts
13/11:30pm 15.7 15.7 14.3 91 0.8 S 7 9 4 5 1023.1 1023.0 0.0
13/11:00pm 15.3 14.9 14.1 92 0.7 SW 9 9 5 5 1023.2 1023.1 0.0
13/10:30pm 16.3 16.6 14.9 91 0.8 SSW 7 7 4 4 1023.0 1022.9 0.0
13/10:00pm 17.3 17.7 15.4 88 1.1 S 7 11 4 6 1022.9 1022.8 0.0
13/09:30pm 17.9 18.0 15.5 86 1.4 SSE 9 15 5 8 1022.9 1022.8 0.0
13/09:00pm 18.4 18.4 15.1 81 1.9 SSE 9 15 5 8 1022.7 1022.6 0.0
13/08:30pm 18.8 18.3 15.0 78 2.2 SE 11 22 6 12 1022.3 1022.2 0.0
13/08:00pm 18.9 16.9 14.9 77 2.3 SE 19 30 10 16 1022.0 1021.9 0.0
13/07:30pm 19.2 17.9 14.7 75 2.6 SE 15 28 8 15 1021.6 1021.5 0.0
13/07:00pm 19.3 17.4 14.3 73 2.9 SE 17 32 9 17 1021.4 1021.3 0.0
13/06:30pm 19.5 16.7 12.7 65 3.8 SE 19 30 10 16 1021.0 1020.9 0.0
13/06:00pm 19.9 16.8 10.2 53 5.2 SE 17 28 9 15 1020.6 1020.5 0.0
13/05:30pm 20.3 16.7 9.8 51 5.6 ESE 19 30 10 16 1020.1 1020.0 0.0
13/05:00pm 21.0 17.2 9.8 48 6.0 ESE 20 32 11 17 1019.7 1019.6 0.0
13/04:30pm 21.8 17.2 8.2 41 7.1 ESE 22 37 12 20 1019.4 1019.3 0.0
13/04:00pm 22.9 18.4 7.0 36 8.2 ESE 20 33 11 18 1019.1 1019.0 0.0
13/03:30pm 24.1 18.0 2.6 24 10.3 SE 24 39 13 21 1018.8 1018.7 0.0
13/03:00pm 25.7 20.8 1.8 21 11.4 ESE 17 28 9 15 1018.2 1018.1 0.0
13/02:30pm 26.6 20.7 -1.9 15 12.8 SE 19 32 10 17 1018.0 1017.9 0.0
13/02:00pm 28.2 21.9 -6.3 10 14.5 S 19 30 10 16 1017.7 1017.7 0.0
13/01:30pm 28.4 22.0 -4.5 11 14.3 SW 20 32 11 17 1018.2 1018.1 0.0
13/01:00pm 28.5 22.7 -4.2 11 14.3 SSW 17 37 9 20 1018.5 1018.4 0.0
13/12:30pm 28.2 21.4 -9.8 7 15.0 SSW 20 33 11 18 1018.9 1018.8 0.0
13/12:00pm 28.0 19.3 -3.5 12 13.9 SW 33 41 18 22 1019.1 1019.0 0.0
13/11:30am 27.9 19.5 -5.5 11 14.2 SW 30 39 16 21 1019.3 1019.2 0.0
13/11:00am 26.9 19.3 -5.2 12 13.6 SW 26 37 14 20 1019.9 1019.8 0.0
13/10:30am 26.0 21.8 -0.8 17 12.2 SW 11 19 6 10 1020.3 1020.2 0.0
13/10:00am 23.7 21.0 5.7 31 9.1 WSW 9 13 5 7 1020.6 1020.5 0.0
13/09:30am 20.7 18.3 6.9 40 7.0 SW 9 13 5 7 1021.1 1021.0 0.0
13/09:00am 18.8 16.8 8.8 52 5.2 SW 9 15 5 8 1021.3 1021.2 0.0
13/08:30am 16.8 15.3 9.0 60 4.0 SW 7 11 4 6 1021.6 1021.5 0.0
13/08:00am 15.0 13.8 10.4 74 2.4 SW 7 9 4 5 1021.7 1021.6 0.0
13/07:30am 13.1 12.1 10.2 82 1.5 SW 6 7 3 4 1021.5 1021.4 0.0
13/07:00am 11.8 10.6 10.2 90 0.8 SSW 7 9 4 5 1021.5 1021.4 0.0
13/06:30am 9.7 8.2 9.1 96 0.3 S 7 7 4 4 1021.4 1021.3 0.0
13/06:00am 8.8 8.5 8.6 99 0.1 CALM 0 0 0 0 1021.3 1021.2 0.0
13/05:30am 9.6 9.1 9.2 97 0.2 SSE 2 9 1 5 1021.4 1021.3 0.0
13/05:00am 9.3 7.8 8.5 95 0.4 SW 6 7 3 4 1021.1 1021.0 0.0
13/04:30am 9.9 9.3 9.1 95 0.4 WSW 2 7 1 4 1021.1 1021.0 0.0
13/04:00am 9.9 9.9 9.7 99 0.1 CALM 0 0 0 0 1020.8 1020.7 0.0
13/03:30am 8.6 7.1 8.6 100 0.0 WSW 6 6 3 3 1021.0 1020.9 0.0
13/03:00am 10.2 8.8 9.6 96 0.3 WSW 7 7 4 4 1021.2 1021.1 0.0
13/02:30am 10.6 9.9 10.2 97 0.2 NW 4 7 2 4 1021.4 1021.3 0.0
13/02:00am 11.1 9.5 10.3 95 0.4 W 9 11 5 6 1021.8 1021.7 0.0
13/01:30am 11.1 11.3 10.5 96 0.3 CALM 0 0 0 0 1022.2 1022.1 0.0
13/01:00am 12.3 12.6 10.8 90 0.8 CALM 0 0 0 0 1022.1 1022.0 0.0
13/12:30am 13.0 13.4 11.3 89 0.9 CALM 0 0 0 0 1022.6 1022.5 0.0
13/12:00am 13.6 12.3 11.1 85 1.3 NNW 9 13 5 7 1023.0 1022.9 0.0
 
Date/Time
EST
Temp
°C
App
Temp
°C
Dew
Point
°C
Rel
Hum
%
Delta-T
°C
Wind Press
QNH
hPa
Press
MSL
hPa
Rain since
9am
mm
Dir  Spd
km/h
Gust
km/h
Spd
kts
Gust
kts
12/11:30pm 14.8 12.9 11.8 82 1.6 NNW 13 17 7 9 1022.9 1022.8 0.0
12/11:00pm 14.3 13.1 11.7 84 1.4 NNW 9 13 5 7 1023.3 1023.2 0.0
12/10:30pm 14.9 13.3 11.7 81 1.7 NNW 11 13 6 7 1023.3 1023.2 0.0
12/10:00pm 15.0 12.8 12.0 82 1.6 NNW 15 24 8 13 1023.3 1023.2 0.0
12/09:30pm 15.3 13.3 12.6 84 1.5 N 15 32 8 17 1023.2 1023.1 0.0
12/09:00pm 15.7 14.0 12.6 82 1.7 N 13 15 7 8 1023.5 1023.4 0.0
12/08:30pm 16.0 13.7 12.9 82 1.7 N 17 20 9 11 1023.7 1023.6 0.0
12/08:00pm 16.4 14.0 12.8 79 2.0 N 17 20 9 11 1024.0 1023.9 0.0
12/07:30pm 16.9 14.0 12.3 74 2.5 NNE 19 26 10 14 1023.8 1023.7 0.0
12/07:00pm 16.7 13.8 12.3 75 2.4 NNE 19 26 10 14 1023.6 1023.5 0.0
12/06:30pm 17.0 14.1 12.3 74 2.6 NNE 19 24 10 13 1023.3 1023.2 0.0
12/06:00pm 16.4 14.1 11.8 74 2.5 NE 15 20 8 11 1023.3 1023.2 0.0

Other formats

Comma delimited format used in spreadsheet applications
http://www.bom.gov.au/fwo/IDQ60801/IDQ60801.94578.axf

JavaScript Object Notation format (JSON) in row-major order
http://www.bom.gov.au/fwo/IDQ60801/IDQ60801.94578.json

Data quality

Most of these data are generated automatically and are frequently updated. Quality checks on data are not normally performed. It is possible for incorrect values to appear. Refer to information at About Latest Weather Observations and please check the disclaimer before using these data.